Aviation Digital Data Service (ADDS)

Output produced by METARs form (0239 UTC 18 June 2019)
found at http://www.aviationweather.gov/metar/data/
 
METAR text: FALA 180200Z AUTO VRB01KT //// // ////// 04/M03 Q1031
Conditions at: FALA (LANSERIA (CIV/MI, ZA) observed 0200 UTC 18 June 2019
Temperature: 4.0°C (39°F)
Dewpoint: -3.0°C (27°F) [RH = 60%]
Pressure (altimeter): 30.44 inches Hg (1031.0 mb)
Winds: variable direction winds at 1 MPH (1 knots; 0.5 m/s)
Visibility: missing
Ceiling: unknown
Clouds: missing
Weather: no significant weather observed at this time

METAR text: FALA 180100Z AUTO VRB01KT //// // ////// 06/M02 Q1031
Conditions at: FALA (LANSERIA (CIV/MI, ZA) observed 0100 UTC 18 June 2019
Temperature: 6.0°C (43°F)
Dewpoint: -2.0°C (28°F) [RH = 56%]
Pressure (altimeter): 30.44 inches Hg (1031.0 mb)
Winds: variable direction winds at 1 MPH (1 knots; 0.5 m/s)
Visibility: missing
Ceiling: unknown
Clouds: missing
Weather: no significant weather observed at this time

METAR text: FALA 180000Z AUTO VRB02KT //// // ////// 05/M02 Q1031
Conditions at: FALA (LANSERIA (CIV/MI, ZA) observed 0000 UTC 18 June 2019
Temperature: 5.0°C (41°F)
Dewpoint: -2.0°C (28°F) [RH = 60%]
Pressure (altimeter): 30.44 inches Hg (1031.0 mb)
Winds: variable direction winds at 2 MPH (2 knots; 1.0 m/s)
Visibility: missing
Ceiling: unknown
Clouds: missing
Weather: no significant weather observed at this time

METAR text: FALA 172300Z AUTO 20004KT //// // ////// 06/M02 Q1031
Conditions at: FALA (LANSERIA (CIV/MI, ZA) observed 2300 UTC 17 June 2019
Temperature: 6.0°C (43°F)
Dewpoint: -2.0°C (28°F) [RH = 56%]
Pressure (altimeter): 30.44 inches Hg (1031.0 mb)
Winds: from the SSW (200 degrees) at 5 MPH (4 knots; 2.1 m/s)
Visibility: missing
Ceiling: unknown
Clouds: missing
Weather: no significant weather observed at this time

METAR text: FALA 172200Z AUTO 00000KT //// // ////// 07/M02 Q1031
Conditions at: FALA (LANSERIA (CIV/MI, ZA) observed 2200 UTC 17 June 2019
Temperature: 7.0°C (45°F)
Dewpoint: -2.0°C (28°F) [RH = 53%]
Pressure (altimeter): 30.44 inches Hg (1031.0 mb)
Winds: calm
Visibility: missing
Ceiling: unknown
Clouds: missing
Weather: no significant weather observed at this time

METAR text: FALA 172100Z AUTO 07003KT 040V110 //// // ////// 08/M02 Q1032
Conditions at: FALA (LANSERIA (CIV/MI, ZA) observed 2100 UTC 17 June 2019
Temperature: 8.0°C (46°F)
Dewpoint: -2.0°C (28°F) [RH = 49%]
Pressure (altimeter): 30.47 inches Hg (1032.0 mb)
Winds: from the ENE (70 degrees) at 3 MPH (3 knots; 1.5 m/s)
Visibility: missing
Ceiling: unknown
Clouds: missing
Weather: no significant weather observed at this time

METAR text: FALA 172000Z 21006KT CAVOK 09/M01 Q1032 NOSIG
Conditions at: FALA (LANSERIA (CIV/MI, ZA) observed 2000 UTC 17 June 2019
Temperature: 9.0°C (48°F)
Dewpoint: -1.0°C (30°F) [RH = 49%]
Pressure (altimeter): 30.47 inches Hg (1032.0 mb)
Winds: from the SSW (210 degrees) at 7 MPH (6 knots; 3.1 m/s)
Visibility: 6 or more miles (10+ km)
Ceiling: ceiling and visibility are OK
Clouds: unknown
Weather: no significant weather observed at this time

METAR text: FALA 171900Z VRB03KT CAVOK 08/M02 Q1031 NOSIG
Conditions at: FALA (LANSERIA (CIV/MI, ZA) observed 1900 UTC 17 June 2019
Temperature: 8.0°C (46°F)
Dewpoint: -2.0°C (28°F) [RH = 49%]
Pressure (altimeter): 30.44 inches Hg (1031.0 mb)
Winds: variable direction winds at 3 MPH (3 knots; 1.5 m/s)
Visibility: 6 or more miles (10+ km)
Ceiling: ceiling and visibility are OK
Clouds: unknown
Weather: no significant weather observed at this time

METAR text: FALA 171800Z 14003KT 100V180 CAVOK 13/M03 Q1031 NOSIG
Conditions at: FALA (LANSERIA (CIV/MI, ZA) observed 1800 UTC 17 June 2019
Temperature: 13.0°C (55°F)
Dewpoint: -3.0°C (27°F) [RH = 33%]
Pressure (altimeter): 30.44 inches Hg (1031.0 mb)
Winds: from the SE (140 degrees) at 3 MPH (3 knots; 1.5 m/s)
Visibility: 6 or more miles (10+ km)
Ceiling: ceiling and visibility are OK
Clouds: unknown
Weather: no significant weather observed at this time

METAR text: FALA 171700Z 00000KT CAVOK 14/M03 Q1030 NOSIG
Conditions at: FALA (LANSERIA (CIV/MI, ZA) observed 1700 UTC 17 June 2019
Temperature: 14.0°C (57°F)
Dewpoint: -3.0°C (27°F) [RH = 31%]
Pressure (altimeter): 30.41 inches Hg (1030.0 mb)
Winds: calm
Visibility: 6 or more miles (10+ km)
Ceiling: ceiling and visibility are OK
Clouds: unknown
Weather: no significant weather observed at this time

METAR text: FALA 171600Z 33004KT CAVOK 16/M02 Q1030 NOSIG
Conditions at: FALA (LANSERIA (CIV/MI, ZA) observed 1600 UTC 17 June 2019
Temperature: 16.0°C (61°F)
Dewpoint: -2.0°C (28°F) [RH = 29%]
Pressure (altimeter): 30.41 inches Hg (1030.0 mb)
Winds: from the NNW (330 degrees) at 5 MPH (4 knots; 2.1 m/s)
Visibility: 6 or more miles (10+ km)
Ceiling: ceiling and visibility are OK
Clouds: unknown
Weather: no significant weather observed at this time

METAR text: FALA 171500Z 31007KT CAVOK 18/M03 Q1029 NOSIG
Conditions at: FALA (LANSERIA (CIV/MI, ZA) observed 1500 UTC 17 June 2019
Temperature: 18.0°C (64°F)
Dewpoint: -3.0°C (27°F) [RH = 24%]
Pressure (altimeter): 30.38 inches Hg (1029.0 mb)
Winds: from the NW (310 degrees) at 8 MPH (7 knots; 3.6 m/s)
Visibility: 6 or more miles (10+ km)
Ceiling: ceiling and visibility are OK
Clouds: unknown
Weather: no significant weather observed at this time

METAR text: FALA 171400Z 30008KT 260V330 CAVOK 20/M02 Q1029 NOSIG
Conditions at: FALA (LANSERIA (CIV/MI, ZA) observed 1400 UTC 17 June 2019
Temperature: 20.0°C (68°F)
Dewpoint: -2.0°C (28°F) [RH = 23%]
Pressure (altimeter): 30.38 inches Hg (1029.0 mb)
Winds: from the WNW (300 degrees) at 9 MPH (8 knots; 4.1 m/s)
Visibility: 6 or more miles (10+ km)
Ceiling: ceiling and visibility are OK
Clouds: unknown
Weather: no significant weather observed at this time

METAR text: FALA 171300Z 28009KT 230V320 CAVOK 21/M02 Q1029 NOSIG
Conditions at: FALA (LANSERIA (CIV/MI, ZA) observed 1300 UTC 17 June 2019
Temperature: 21.0°C (70°F)
Dewpoint: -2.0°C (28°F) [RH = 21%]
Pressure (altimeter): 30.38 inches Hg (1029.0 mb)
Winds: from the W (280 degrees) at 10 MPH (9 knots; 4.6 m/s)
Visibility: 6 or more miles (10+ km)
Ceiling: ceiling and visibility are OK
Clouds: unknown
Weather: no significant weather observed at this time

METAR text: FALA 171200Z VRB03KT CAVOK 20/M01 Q1030 NOSIG
Conditions at: FALA (LANSERIA (CIV/MI, ZA) observed 1200 UTC 17 June 2019
Temperature: 20.0°C (68°F)
Dewpoint: -1.0°C (30°F) [RH = 24%]
Pressure (altimeter): 30.41 inches Hg (1030.0 mb)
Winds: variable direction winds at 3 MPH (3 knots; 1.5 m/s)
Visibility: 6 or more miles (10+ km)
Ceiling: ceiling and visibility are OK
Clouds: unknown
Weather: no significant weather observed at this time

METAR text: FALA 171100Z 02005KT 320V060 CAVOK 19/00 Q1031 NOSIG
Conditions at: FALA (LANSERIA (CIV/MI, ZA) observed 1100 UTC 17 June 2019
Temperature: 19.0°C (66°F)
Dewpoint: 0.0°C (32°F) [RH = 28%]
Pressure (altimeter): 30.44 inches Hg (1031.0 mb)
Winds: from the NNE (20 degrees) at 6 MPH (5 knots; 2.6 m/s)
Visibility: 6 or more miles (10+ km)
Ceiling: ceiling and visibility are OK
Clouds: unknown
Weather: no significant weather observed at this time

METAR text: FALA 171000Z VRB05KT CAVOK 18/M01 Q1032 NOSIG
Conditions at: FALA (LANSERIA (CIV/MI, ZA) observed 1000 UTC 17 June 2019
Temperature: 18.0°C (64°F)
Dewpoint: -1.0°C (30°F) [RH = 28%]
Pressure (altimeter): 30.47 inches Hg (1032.0 mb)
Winds: variable direction winds at 6 MPH (5 knots; 2.6 m/s)
Visibility: 6 or more miles (10+ km)
Ceiling: ceiling and visibility are OK
Clouds: unknown
Weather: no significant weather observed at this time

METAR text: FALA 170900Z VRB03KT 9000 NSC 16/M00 Q1033 NOSIG
Conditions at: FALA (LANSERIA (CIV/MI, ZA) observed 0900 UTC 17 June 2019
Temperature: 16.0°C (61°F)
Dewpoint: 0.0°C (32°F) [RH = 34%]
Pressure (altimeter): 30.50 inches Hg (1033.0 mb)
Winds: variable direction winds at 3 MPH (3 knots; 1.5 m/s)
Visibility: 6 miles ( 9 km)
Ceiling: at least 12,000 feet AGL
Clouds: sky clear below 12,000 feet AGL
Weather: no significant weather observed at this time

METAR text: FALA 170830Z VRB02KT 8000 NSC 14/01 Q1033 NOSIG
Conditions at: FALA (LANSERIA (CIV/MI, ZA) observed 0830 UTC 17 June 2019
Temperature: 14.0°C (57°F)
Dewpoint: 1.0°C (34°F) [RH = 41%]
Pressure (altimeter): 30.50 inches Hg (1033.0 mb)
Winds: variable direction winds at 2 MPH (2 knots; 1.0 m/s)
Visibility: 5 miles ( 8 km)
Ceiling: at least 12,000 feet AGL
Clouds: sky clear below 12,000 feet AGL
Weather: no significant weather observed at this time

METAR text: FALA 170800Z 35003KT 280V070 8000 NSC 12/00 Q1034 NOSIG
Conditions at: FALA (LANSERIA (CIV/MI, ZA) observed 0800 UTC 17 June 2019
Temperature: 12.0°C (54°F)
Dewpoint: 0.0°C (32°F) [RH = 44%]
Pressure (altimeter): 30.53 inches Hg (1034.0 mb)
Winds: from the N (350 degrees) at 3 MPH (3 knots; 1.5 m/s)
Visibility: 5 miles ( 8 km)
Ceiling: at least 12,000 feet AGL
Clouds: sky clear below 12,000 feet AGL
Weather: no significant weather observed at this time

METAR text: FALA 170729Z VRB02KT 8000 NSC 11/00 Q1034 NOSIG
Conditions at: FALA (LANSERIA (CIV/MI, ZA) observed 0729 UTC 17 June 2019
Temperature: 11.0°C (52°F)
Dewpoint: 0.0°C (32°F) [RH = 47%]
Pressure (altimeter): 30.53 inches Hg (1034.0 mb)
Winds: variable direction winds at 2 MPH (2 knots; 1.0 m/s)
Visibility: 5 miles ( 8 km)
Ceiling: at least 12,000 feet AGL
Clouds: sky clear below 12,000 feet AGL
Weather: no significant weather observed at this time

METAR text: FALA 170700Z VRB02KT 8000 NSC 09/00 Q1034 NOSIG
Conditions at: FALA (LANSERIA (CIV/MI, ZA) observed 0700 UTC 17 June 2019
Temperature: 9.0°C (48°F)
Dewpoint: 0.0°C (32°F) [RH = 53%]
Pressure (altimeter): 30.53 inches Hg (1034.0 mb)
Winds: variable direction winds at 2 MPH (2 knots; 1.0 m/s)
Visibility: 5 miles ( 8 km)
Ceiling: at least 12,000 feet AGL
Clouds: sky clear below 12,000 feet AGL
Weather: no significant weather observed at this time

METAR text: FALA 170650Z 00000KT 8000 NSC 09/00 Q1033 NOSIG
Conditions at: FALA (LANSERIA (CIV/MI, ZA) observed 0650 UTC 17 June 2019
Temperature: 9.0°C (48°F)
Dewpoint: 0.0°C (32°F) [RH = 53%]
Pressure (altimeter): 30.50 inches Hg (1033.0 mb)
Winds: calm
Visibility: 5 miles ( 8 km)
Ceiling: at least 12,000 feet AGL
Clouds: sky clear below 12,000 feet AGL
Weather: no significant weather observed at this time

METAR text: FALA 170633Z VRB02KT 8000 NSC 07/00 Q1033 NOSIG
Conditions at: FALA (LANSERIA (CIV/MI, ZA) observed 0633 UTC 17 June 2019
Temperature: 7.0°C (45°F)
Dewpoint: 0.0°C (32°F) [RH = 61%]
Pressure (altimeter): 30.50 inches Hg (1033.0 mb)
Winds: variable direction winds at 2 MPH (2 knots; 1.0 m/s)
Visibility: 5 miles ( 8 km)
Ceiling: at least 12,000 feet AGL
Clouds: sky clear below 12,000 feet AGL
Weather: no significant weather observed at this time

METAR text: FALA 170600Z 00000KT 8000 NSC 05/M01 Q1033 NOSIG
Conditions at: FALA (LANSERIA (CIV/MI, ZA) observed 0600 UTC 17 June 2019
Temperature: 5.0°C (41°F)
Dewpoint: -1.0°C (30°F) [RH = 65%]
Pressure (altimeter): 30.50 inches Hg (1033.0 mb)
Winds: calm
Visibility: 5 miles ( 8 km)
Ceiling: at least 12,000 feet AGL
Clouds: sky clear below 12,000 feet AGL
Weather: no significant weather observed at this time

METAR text: FALA 170541Z 13002KT 8000 NSC 05/M02 Q1033 NOSIG
Conditions at: FALA (LANSERIA (CIV/MI, ZA) observed 0541 UTC 17 June 2019
Temperature: 5.0°C (41°F)
Dewpoint: -2.0°C (28°F) [RH = 60%]
Pressure (altimeter): 30.50 inches Hg (1033.0 mb)
Winds: from the SE (130 degrees) at 2 MPH (2 knots; 1.0 m/s)
Visibility: 5 miles ( 8 km)
Ceiling: at least 12,000 feet AGL
Clouds: sky clear below 12,000 feet AGL
Weather: no significant weather observed at this time

METAR text: FALA 170500Z 00000KT 8000 NSC 03/M03 Q1032 NOSIG
Conditions at: FALA (LANSERIA (CIV/MI, ZA) observed 0500 UTC 17 June 2019
Temperature: 3.0°C (37°F)
Dewpoint: -3.0°C (27°F) [RH = 65%]
Pressure (altimeter): 30.47 inches Hg (1032.0 mb)
Winds: calm
Visibility: 5 miles ( 8 km)
Ceiling: at least 12,000 feet AGL
Clouds: sky clear below 12,000 feet AGL
Weather: no significant weather observed at this time

METAR text: FALA 170400Z VRB02KT 9000 NSC 03/M03 Q1032 NOSIG
Conditions at: FALA (LANSERIA (CIV/MI, ZA) observed 0400 UTC 17 June 2019
Temperature: 3.0°C (37°F)
Dewpoint: -3.0°C (27°F) [RH = 65%]
Pressure (altimeter): 30.47 inches Hg (1032.0 mb)
Winds: variable direction winds at 2 MPH (2 knots; 1.0 m/s)
Visibility: 6 miles ( 9 km)
Ceiling: at least 12,000 feet AGL
Clouds: sky clear below 12,000 feet AGL
Weather: no significant weather observed at this time

METAR text: FALA 170300Z VRB02KT CAVOK 05/M03 Q1032 NOSIG
Conditions at: FALA (LANSERIA (CIV/MI, ZA) observed 0300 UTC 17 June 2019
Temperature: 5.0°C (41°F)
Dewpoint: -3.0°C (27°F) [RH = 56%]
Pressure (altimeter): 30.47 inches Hg (1032.0 mb)
Winds: variable direction winds at 2 MPH (2 knots; 1.0 m/s)
Visibility: 6 or more miles (10+ km)
Ceiling: ceiling and visibility are OK
Clouds: unknown
Weather: no significant weather observed at this time

METAR text: FALA 170200Z AUTO 00000KT //// // ////// 05/M03 Q1031
Conditions at: FALA (LANSERIA (CIV/MI, ZA) observed 0200 UTC 17 June 2019
Temperature: 5.0°C (41°F)
Dewpoint: -3.0°C (27°F) [RH = 56%]
Pressure (altimeter): 30.44 inches Hg (1031.0 mb)
Winds: calm
Visibility: missing
Ceiling: unknown
Clouds: missing
Weather: no significant weather observed at this time

METAR text: FALA 170100Z AUTO 00000KT //// // ////// 05/M02 Q1031
Conditions at: FALA (LANSERIA (CIV/MI, ZA) observed 0100 UTC 17 June 2019
Temperature: 5.0°C (41°F)
Dewpoint: -2.0°C (28°F) [RH = 60%]
Pressure (altimeter): 30.44 inches Hg (1031.0 mb)
Winds: calm
Visibility: missing
Ceiling: unknown
Clouds: missing
Weather: no significant weather observed at this time

METAR text: FALA 170000Z AUTO VRB04KT //// // ////// 04/M02 Q1031
Conditions at: FALA (LANSERIA (CIV/MI, ZA) observed 0000 UTC 17 June 2019
Temperature: 4.0°C (39°F)
Dewpoint: -2.0°C (28°F) [RH = 65%]
Pressure (altimeter): 30.44 inches Hg (1031.0 mb)
Winds: variable direction winds at 5 MPH (4 knots; 2.1 m/s)
Visibility: missing
Ceiling: unknown
Clouds: missing
Weather: no significant weather observed at this time

METAR text: FALA 162300Z AUTO 18004KT //// // ////// 07/M02 Q1031
Conditions at: FALA (LANSERIA (CIV/MI, ZA) observed 2300 UTC 16 June 2019
Temperature: 7.0°C (45°F)
Dewpoint: -2.0°C (28°F) [RH = 53%]
Pressure (altimeter): 30.44 inches Hg (1031.0 mb)
Winds: from the S (180 degrees) at 5 MPH (4 knots; 2.1 m/s)
Visibility: missing
Ceiling: unknown
Clouds: missing
Weather: no significant weather observed at this time

METAR text: FALA 162200Z AUTO 00000KT //// // ////// 06/M02 Q1031
Conditions at: FALA (LANSERIA (CIV/MI, ZA) observed 2200 UTC 16 June 2019
Temperature: 6.0°C (43°F)
Dewpoint: -2.0°C (28°F) [RH = 56%]
Pressure (altimeter): 30.44 inches Hg (1031.0 mb)
Winds: calm
Visibility: missing
Ceiling: unknown
Clouds: missing
Weather: no significant weather observed at this time

METAR text: FALA 162100Z AUTO 24003KT //// // ////// 08/M02 Q1031
Conditions at: FALA (LANSERIA (CIV/MI, ZA) observed 2100 UTC 16 June 2019
Temperature: 8.0°C (46°F)
Dewpoint: -2.0°C (28°F) [RH = 49%]
Pressure (altimeter): 30.44 inches Hg (1031.0 mb)
Winds: from the WSW (240 degrees) at 3 MPH (3 knots; 1.5 m/s)
Visibility: missing
Ceiling: unknown
Clouds: missing
Weather: no significant weather observed at this time

METAR text: FALA 162000Z VRB02KT 9000 NSC 08/M02 Q1031 NOSIG
Conditions at: FALA (LANSERIA (CIV/MI, ZA) observed 2000 UTC 16 June 2019
Temperature: 8.0°C (46°F)
Dewpoint: -2.0°C (28°F) [RH = 49%]
Pressure (altimeter): 30.44 inches Hg (1031.0 mb)
Winds: variable direction winds at 2 MPH (2 knots; 1.0 m/s)
Visibility: 6 miles ( 9 km)
Ceiling: at least 12,000 feet AGL
Clouds: sky clear below 12,000 feet AGL
Weather: no significant weather observed at this time

METAR text: FALA 161900Z VRB02KT CAVOK 11/M02 Q1031 NOSIG
Conditions at: FALA (LANSERIA (CIV/MI, ZA) observed 1900 UTC 16 June 2019
Temperature: 11.0°C (52°F)
Dewpoint: -2.0°C (28°F) [RH = 40%]
Pressure (altimeter): 30.44 inches Hg (1031.0 mb)
Winds: variable direction winds at 2 MPH (2 knots; 1.0 m/s)
Visibility: 6 or more miles (10+ km)
Ceiling: ceiling and visibility are OK
Clouds: unknown
Weather: no significant weather observed at this time

METAR text: FALA 161800Z 14003KT 100V180 CAVOK 13/M02 Q1030 NOSIG
Conditions at: FALA (LANSERIA (CIV/MI, ZA) observed 1800 UTC 16 June 2019
Temperature: 13.0°C (55°F)
Dewpoint: -2.0°C (28°F) [RH = 35%]
Pressure (altimeter): 30.41 inches Hg (1030.0 mb)
Winds: from the SE (140 degrees) at 3 MPH (3 knots; 1.5 m/s)
Visibility: 6 or more miles (10+ km)
Ceiling: ceiling and visibility are OK
Clouds: unknown
Weather: no significant weather observed at this time

METAR text: FALA 161700Z 22004KT 190V260 CAVOK 15/M03 Q1030 NOSIG
Conditions at: FALA (LANSERIA (CIV/MI, ZA) observed 1700 UTC 16 June 2019
Temperature: 15.0°C (59°F)
Dewpoint: -3.0°C (27°F) [RH = 29%]
Pressure (altimeter): 30.41 inches Hg (1030.0 mb)
Winds: from the SW (220 degrees) at 5 MPH (4 knots; 2.1 m/s)
Visibility: 6 or more miles (10+ km)
Ceiling: ceiling and visibility are OK
Clouds: unknown
Weather: no significant weather observed at this time

METAR text: FALA 161600Z 28004KT CAVOK 16/M02 Q1029 NOSIG
Conditions at: FALA (LANSERIA (CIV/MI, ZA) observed 1600 UTC 16 June 2019
Temperature: 16.0°C (61°F)
Dewpoint: -2.0°C (28°F) [RH = 29%]
Pressure (altimeter): 30.38 inches Hg (1029.0 mb)
Winds: from the W (280 degrees) at 5 MPH (4 knots; 2.1 m/s)
Visibility: 6 or more miles (10+ km)
Ceiling: ceiling and visibility are OK
Clouds: unknown
Weather: no significant weather observed at this time

METAR text: FALA 161500Z 30006KT CAVOK 18/M02 Q1029 NOSIG
Conditions at: FALA (LANSERIA (CIV/MI, ZA) observed 1500 UTC 16 June 2019
Temperature: 18.0°C (64°F)
Dewpoint: -2.0°C (28°F) [RH = 26%]
Pressure (altimeter): 30.38 inches Hg (1029.0 mb)
Winds: from the WNW (300 degrees) at 7 MPH (6 knots; 3.1 m/s)
Visibility: 6 or more miles (10+ km)
Ceiling: ceiling and visibility are OK
Clouds: unknown
Weather: no significant weather observed at this time

Forecast for: FALA (LANSERIA (CIV/MI, ZA)
Text: TAF FALA 172200Z 1800/1824 VRB03KT CAVOK TX21/1812Z TN03/1805Z
Forecast period: 0000 to 0800 UTC 18 June 2019
Forecast type: FROM: standard forecast or significant change
Winds: variable direction winds at 3 MPH (3 knots; 1.5 m/s)
Visibility: 6 or more miles 10+ km)
Ceiling: unknown
Clouds: missing
Weather: no significant weather forecast for this period
Text: BECMG 1808/1810 13008KT
Forecast period: 0800 to 1800 UTC 18 June 2019
Forecast type: BECOMING: Conditions expected to become as follows by 1000 UTC 18 June 2019
Winds: from the SE (130 degrees) at 9 MPH (8 knots; 4.1 m/s)
Visibility: 6 or more miles 10+ km)
Ceiling: unknown
Clouds: missing
Weather: no significant weather forecast for this period
Text: BECMG 1818/1820 VRB03KT
Forecast period: 1800 UTC 18 June 2019 to 0000 UTC 19 June 2019
Forecast type: BECOMING: Conditions expected to become as follows by 2000 UTC 18 June 2019
Winds: variable direction winds at 3 MPH (3 knots; 1.5 m/s)
Visibility: 6 or more miles 10+ km)
Ceiling: unknown
Clouds: missing
Weather: no significant weather forecast for this period